Time;durP1;ratioP1;P1;durP2;ratioP2;P2;SDS_P1;SDS_P2;PMS_P1;PMS_P2;Temp;Humidity;BMP_temperature;BMP_pressure;BME280_temperature;BME280_humidity;BME280_pressure;Samples;Min_cycle;Max_cycle;Signal;HPM_P1;HPM_P2
2022/03/08 00:02:21;;;;;;;10.83;5.40;;;;;;;18.77;45.06;100848.25;5050441;28;20183;-58
2022/03/08 00:04:47;;;;;;;11.60;4.90;;;;;;;18.77;45.09;100831.09;5050434;28;20612;-58
2022/03/08 00:07:12;;;;;;;11.57;5.20;;;;;;;18.75;45.08;100839.22;5050158;28;20187;-59
2022/03/08 00:09:38;;;;;;;9.33;4.20;;;;;;;18.71;45.42;100838.28;5033493;28;20698;-58
2022/03/08 00:12:04;;;;;;;7.57;4.27;;;;;;;18.75;45.48;100846.97;5012524;28;20168;-59
2022/03/08 00:14:29;;;;;;;7.23;4.27;;;;;;;18.71;45.32;100843.22;5030183;28;20183;-58
2022/03/08 00:16:55;;;;;;;9.17;4.67;;;;;;;18.68;45.35;100841.91;5030337;28;20175;-58
2022/03/08 00:19:20;;;;;;;12.07;4.60;;;;;;;18.71;45.41;100849.75;5028828;28;20161;-58
2022/03/08 00:21:46;;;;;;;9.80;4.97;;;;;;;18.69;45.42;100845.59;5029323;28;20183;-58
2022/03/08 00:24:12;;;;;;;8.30;4.10;;;;;;;18.68;45.74;100838.22;5049931;28;20179;-58
2022/03/08 00:26:37;;;;;;;10.83;5.33;;;;;;;18.68;45.55;100835.34;5050382;28;20701;-58
2022/03/08 00:29:03;;;;;;;8.07;4.70;;;;;;;18.69;45.64;100837.00;5049465;28;20433;-59
2022/03/08 00:31:29;;;;;;;12.30;4.57;;;;;;;18.70;45.50;100838.66;5049957;28;20245;-58
2022/03/08 00:33:54;;;;;;;8.63;4.47;;;;;;;18.66;45.80;100835.72;5049991;28;20264;-58
2022/03/08 00:36:20;;;;;;;7.93;4.73;;;;;;;18.64;45.81;100838.13;5050125;28;20224;-58
2022/03/08 00:38:45;;;;;;;7.10;4.23;;;;;;;18.64;45.97;100838.13;5050031;28;20661;-58
2022/03/08 00:41:11;;;;;;;10.87;4.70;;;;;;;18.67;45.55;100830.84;5049806;28;20533;-58
2022/03/08 00:43:36;;;;;;;10.07;4.37;;;;;;;18.64;45.92;100837.28;5049425;28;20163;-58
2022/03/08 00:46:02;;;;;;;8.67;4.80;;;;;;;18.67;45.79;100830.84;5049777;28;20207;-58
2022/03/08 00:48:27;;;;;;;10.43;4.77;;;;;;;18.68;45.61;100832.50;5049715;28;20670;-58
2022/03/08 00:50:53;;;;;;;10.20;4.90;;;;;;;18.65;45.51;100834.06;5049514;28;20175;-58
2022/03/08 00:53:18;;;;;;;8.97;4.20;;;;;;;18.62;45.80;100831.94;5049361;28;20188;-58
2022/03/08 00:55:44;;;;;;;6.97;4.43;;;;;;;18.63;46.00;100825.03;5049522;28;20183;-58
2022/03/08 00:58:09;;;;;;;6.80;4.50;;;;;;;18.61;46.06;100833.13;5049619;28;20180;-58
2022/03/08 01:00:35;;;;;;;7.70;4.60;;;;;;;18.63;45.91;100836.47;5049079;28;20184;-58
2022/03/08 01:03:01;;;;;;;6.13;4.10;;;;;;;18.64;45.92;100831.56;5049346;28;20651;-58
2022/03/08 01:05:26;;;;;;;10.40;4.33;;;;;;;18.63;45.83;100835.63;5049694;28;20564;-58
2022/03/08 01:07:52;;;;;;;8.13;4.03;;;;;;;18.65;46.05;100834.06;5046549;28;20251;-58
2022/03/08 01:10:19;;;;;;;7.40;3.83;;;;;;;18.61;46.20;100833.13;5029225;28;20631;-58
2022/03/08 01:12:45;;;;;;;7.60;4.10;;;;;;;18.61;46.06;100833.13;5029105;28;20160;-58
2022/03/08 01:15:10;;;;;;;6.60;3.97;;;;;;;18.66;46.03;100832.03;5029849;28;20418;-58
2022/03/08 01:17:36;;;;;;;7.57;4.20;;;;;;;18.62;45.97;100831.94;5040384;28;20217;-58
2022/03/08 01:20:01;;;;;;;7.40;4.03;;;;;;;18.64;45.85;100832.41;5033803;28;20200;-58
2022/03/08 01:22:27;;;;;;;6.43;3.93;;;;;;;18.60;46.24;100836.34;5047566;28;20183;-58
2022/03/08 01:24:53;;;;;;;5.70;3.90;;;;;;;18.65;46.01;100822.63;5049529;28;20434;-58
2022/03/08 01:27:18;;;;;;;6.20;3.90;;;;;;;18.62;45.87;100822.53;5049034;28;20550;-58
2022/03/08 01:29:44;;;;;;;7.57;4.50;;;;;;;18.57;46.35;100823.63;5048779;28;20179;-58
2022/03/08 01:32:09;;;;;;;7.00;4.10;;;;;;;18.57;46.14;100820.75;5051648;28;20195;-58
2022/03/08 01:34:35;;;;;;;10.60;4.80;;;;;;;18.62;46.30;100816.81;5053367;28;20198;-58
2022/03/08 01:37:01;;;;;;;6.47;4.30;;;;;;;18.58;46.11;100807.31;5053303;28;20162;-58
2022/03/08 01:39:27;;;;;;;8.23;4.30;;;;;;;18.62;46.13;100806.19;5039917;28;20263;-58
2022/03/08 01:41:52;;;;;;;8.80;4.43;;;;;;;18.57;46.39;100803.59;5031705;28;20450;-58
2022/03/08 01:44:19;;;;;;;8.43;4.23;;;;;;;18.56;46.10;100801.94;5032414;28;20623;-58
2022/03/08 01:46:44;;;;;;;7.77;4.27;;;;;;;18.58;46.23;100796.72;5033531;28;20229;-58
2022/03/08 01:49:09;;;;;;;7.30;3.93;;;;;;;18.61;46.04;100804.53;5033028;28;20546;-58
2022/03/08 01:51:37;;;;;;;6.23;4.00;;;;;;;18.55;46.45;100797.44;5035409;28;20176;-58
2022/03/08 01:54:03;;;;;;;8.90;4.37;;;;;;;18.57;46.32;100792.16;5050948;28;20196;-58
2022/03/08 01:56:29;;;;;;;8.03;4.30;;;;;;;18.60;46.20;100791.44;5053036;28;20454;-58
2022/03/08 01:58:56;;;;;;;5.73;4.00;;;;;;;18.57;46.46;100779.91;5052429;28;20417;-58
2022/03/08 02:01:22;;;;;;;8.20;4.20;;;;;;;18.60;46.39;100780.00;5052746;28;20234;-58
2022/03/08 02:03:47;;;;;;;9.60;3.87;;;;;;;18.57;46.52;100779.91;5052807;28;20896;-58
2022/03/08 02:06:13;;;;;;;7.33;3.90;;;;;;;18.60;46.34;100777.16;5052649;28;20641;-58
2022/03/08 02:08:38;;;;;;;7.73;4.40;;;;;;;18.57;46.19;100777.06;5044055;28;20235;-58
2022/03/08 02:11:04;;;;;;;6.60;3.63;;;;;;;18.56;46.41;100773.34;5032558;28;20184;-58
2022/03/08 02:13:29;;;;;;;7.50;3.97;;;;;;;18.59;46.75;100781.22;5045191;28;20195;-58
2022/03/08 02:15:55;;;;;;;6.30;3.73;;;;;;;18.57;46.50;100765.63;5052948;28;20179;-58
2022/03/08 02:18:20;;;;;;;8.03;3.90;;;;;;;18.54;46.50;100769.22;5052597;28;20547;-58
2022/03/08 02:20:46;;;;;;;6.13;3.57;;;;;;;18.58;46.51;100759.53;5052454;28;20905;-58
2022/03/08 02:23:12;;;;;;;8.20;4.37;;;;;;;18.56;46.08;100761.09;5050970;28;20226;-58
2022/03/08 02:25:37;;;;;;;9.60;4.50;;;;;;;18.58;46.22;100765.25;5052600;28;20203;-58
2022/03/08 02:28:03;;;;;;;8.20;4.70;;;;;;;18.57;46.42;100760.72;5051990;28;20187;-58
2022/03/08 02:30:28;;;;;;;8.73;4.10;;;;;;;18.53;46.38;100754.09;5034597;28;20258;-58
2022/03/08 02:32:54;;;;;;;7.20;3.70;;;;;;;18.55;46.61;100751.69;5051952;28;20172;-58
2022/03/08 02:35:21;;;;;;;6.20;3.67;;;;;;;18.52;46.52;100757.31;5052323;28;20164;-58
2022/03/08 02:37:52;;;;;;;7.20;3.80;;;;;;;18.51;46.79;100753.63;5052365;28;20179;-58
2022/03/08 02:40:20;;;;;;;6.20;3.70;;;;;;;18.51;46.47;100759.34;5051464;28;20399;-58
2022/03/08 02:42:45;;;;;;;7.03;4.00;;;;;;;18.51;46.38;100759.34;5050942;28;20521;-58
2022/03/08 02:45:11;;;;;;;8.30;4.03;;;;;;;18.50;46.75;100754.81;5052179;28;20540;-59
2022/03/08 02:47:37;;;;;;;6.03;3.43;;;;;;;18.51;46.50;100742.19;5052338;28;20668;-58
2022/03/08 02:50:05;;;;;;;6.37;3.90;;;;;;;18.53;46.41;100750.41;5051623;28;20446;-59
2022/03/08 02:52:31;;;;;;;6.07;3.70;;;;;;;18.53;46.55;100747.53;5052023;28;20180;-58
2022/03/08 02:54:57;;;;;;;6.43;3.60;;;;;;;18.54;46.55;100750.03;5051856;28;20962;-58
2022/03/08 02:57:22;;;;;;;6.50;3.70;;;;;;;18.50;46.74;100745.41;5052094;28;20176;-58
2022/03/08 02:59:47;;;;;;;8.57;4.30;;;;;;;18.51;46.45;100742.19;5051230;28;20191;-58
2022/03/08 03:02:13;;;;;;;5.27;3.27;;;;;;;18.51;46.38;100741.38;5051698;28;20180;-58
2022/03/08 03:04:38;;;;;;;6.50;3.83;;;;;;;18.49;46.55;100738.88;5051792;28;22075;-58
2022/03/08 03:07:04;;;;;;;5.80;3.93;;;;;;;18.49;46.77;100733.16;5051878;28;20544;-58
2022/03/08 03:10:10;;;;;;;8.30;4.17;;;;;;;18.51;46.55;100738.50;5050765;28;20231;-58
2022/03/08 03:12:36;;;;;;;5.10;3.30;;;;;;;18.48;46.42;100725.78;5031430;28;20172;-58
2022/03/08 03:15:02;;;;;;;5.97;4.13;;;;;;;18.48;46.71;100725.78;5031431;28;20965;-58
2022/03/08 03:17:27;;;;;;;7.90;3.83;;;;;;;18.52;46.45;100726.69;5039014;28;20558;-58
2022/03/08 03:19:53;;;;;;;5.07;3.60;;;;;;;18.49;46.50;100735.19;5046432;28;20427;-58
2022/03/08 03:22:18;;;;;;;6.70;3.87;;;;;;;18.47;46.91;100737.59;5051083;28;20213;-58
2022/03/08 03:24:43;;;;;;;6.37;3.47;;;;;;;18.51;46.65;100741.38;5051448;28;20203;-58
2022/03/08 03:27:09;;;;;;;4.60;3.10;;;;;;;18.45;46.78;100737.94;5051795;28;20176;-58
2022/03/08 03:29:34;;;;;;;5.50;3.77;;;;;;;18.46;46.92;100728.16;5049855;28;20229;-58
2022/03/08 03:32:00;;;;;;;6.70;3.87;;;;;;;18.47;46.68;100744.13;5032085;28;20188;-59
2022/03/08 03:34:25;;;;;;;5.60;3.60;;;;;;;18.47;47.02;100735.53;5030465;28;20172;-58
2022/03/08 03:36:50;;;;;;;4.73;3.70;;;;;;;18.49;46.69;100724.59;5031586;28;20519;-58
2022/03/08 03:39:16;;;;;;;6.03;3.23;;;;;;;18.49;46.58;100716.00;5030921;28;20211;-58
2022/03/08 03:41:41;;;;;;;5.10;3.23;;;;;;;18.48;46.48;100720.06;5013589;28;20191;-58
2022/03/08 03:44:07;;;;;;;7.60;3.77;;;;;;;18.54;46.42;100720.59;5030951;28;20173;-58
2022/03/08 03:46:32;;;;;;;7.73;3.67;;;;;;;18.54;46.58;100721.44;5031266;28;20520;-58
2022/03/08 03:48:57;;;;;;;6.80;3.70;;;;;;;18.52;46.50;100723.81;5030187;28;20187;-58
2022/03/08 03:51:23;;;;;;;5.87;3.50;;;;;;;18.49;46.70;100721.72;5033800;28;20175;-58
2022/03/08 03:53:48;;;;;;;6.03;3.53;;;;;;;18.51;46.74;100727.06;5047238;28;20176;-58
2022/03/08 03:56:14;;;;;;;7.33;3.63;;;;;;;18.48;46.59;100719.22;5051126;28;20164;-58
2022/03/08 03:58:39;;;;;;;5.90;3.83;;;;;;;18.51;46.59;100719.31;5050927;28;20184;-58
2022/03/08 04:01:05;;;;;;;4.87;3.20;;;;;;;18.53;46.43;100722.66;5050498;28;20568;-58
2022/03/08 04:03:31;;;;;;;6.40;3.30;;;;;;;18.50;46.93;100725.38;5049820;28;20191;-58
2022/03/08 04:05:56;;;;;;;5.53;3.30;;;;;;;18.51;46.63;100725.03;5050387;28;20211;-58
2022/03/08 04:08:21;;;;;;;5.30;3.43;;;;;;;18.47;47.13;100731.88;5050749;28;20223;-59
2022/03/08 04:10:50;;;;;;;5.00;3.70;;;;;;;18.51;46.56;100730.75;5050592;28;20171;-59
2022/03/08 04:13:16;;;;;;;5.20;3.33;;;;;;;18.51;46.94;100736.47;5050352;28;20175;-58
2022/03/08 04:15:42;;;;;;;8.87;3.77;;;;;;;18.47;46.80;100732.69;5032667;28;20828;-58
2022/03/08 04:18:07;;;;;;;4.93;2.90;;;;;;;18.47;46.62;100726.97;5032518;28;20168;-58
2022/03/08 04:20:33;;;;;;;5.93;3.83;;;;;;;18.51;46.72;100732.78;5049944;28;20418;-58
2022/03/08 04:22:59;;;;;;;5.83;3.50;;;;;;;18.48;46.87;100737.22;5050209;28;20198;-58
2022/03/08 04:25:25;;;;;;;5.73;3.70;;;;;;;18.45;47.00;100723.66;5050431;28;20184;-58
2022/03/08 04:27:50;;;;;;;6.00;3.20;;;;;;;18.53;46.70;100721.81;5050101;28;20207;-58
2022/03/08 04:30:16;;;;;;;4.83;3.40;;;;;;;18.52;46.98;100720.97;5049761;28;20509;-58
2022/03/08 04:32:41;;;;;;;4.80;3.10;;;;;;;18.48;46.82;100719.22;5050157;28;20579;-58
2022/03/08 04:35:07;;;;;;;6.03;3.60;;;;;;;18.49;46.50;100721.72;5032619;28;20160;-58
2022/03/08 04:37:33;;;;;;;6.20;3.70;;;;;;;18.49;46.66;100718.88;5032076;28;20176;-58
2022/03/08 04:39:59;;;;;;;5.13;3.50;;;;;;;18.48;46.53;100722.09;5049828;28;20627;-58
2022/03/08 04:42:24;;;;;;;5.03;3.40;;;;;;;18.48;47.13;100722.09;5049895;28;20211;-58
2022/03/08 04:44:50;;;;;;;4.50;3.03;;;;;;;18.45;46.82;100732.22;5049754;28;20548;-58
2022/03/08 04:47:15;;;;;;;4.53;3.13;;;;;;;18.48;46.88;100731.50;5049826;28;20241;-58
2022/03/08 04:49:41;;;;;;;6.33;3.50;;;;;;;18.52;46.88;100734.44;5049870;28;20187;-58
2022/03/08 04:52:06;;;;;;;5.37;3.33;;;;;;;18.51;46.65;100735.66;5049776;28;20251;-58
2022/03/08 04:54:32;;;;;;;5.50;3.23;;;;;;;18.50;46.66;100723.38;5049996;28;20588;-58
2022/03/08 04:56:57;;;;;;;6.10;3.27;;;;;;;18.48;46.58;100728.66;5049730;28;20187;-58
2022/03/08 04:59:23;;;;;;;4.83;2.97;;;;;;;18.49;46.73;100741.72;5049079;28;20646;-58
2022/03/08 05:01:49;;;;;;;5.57;3.50;;;;;;;18.51;46.59;100744.22;5049683;28;20191;-58
2022/03/08 05:04:15;;;;;;;10.53;3.97;;;;;;;18.56;46.35;100739.03;5049473;28;20207;-58
2022/03/08 05:06:41;;;;;;;4.17;2.87;;;;;;;18.51;46.56;100730.75;5049385;28;20465;-58
2022/03/08 05:09:06;;;;;;;5.33;3.30;;;;;;;18.51;46.97;100742.19;5048814;28;20469;-58
2022/03/08 05:11:32;;;;;;;4.27;2.73;;;;;;;18.49;46.83;100736.03;5049591;28;20187;-58
2022/03/08 05:13:57;;;;;;;5.30;3.60;;;;;;;18.45;47.11;100731.38;5048662;28;20654;-58
2022/03/08 05:16:22;;;;;;;5.93;3.30;;;;;;;18.53;46.60;100728.38;5045815;28;20172;-58
2022/03/08 05:18:48;;;;;;;4.50;3.30;;;;;;;18.50;46.69;100716.81;5049220;28;20239;-58
2022/03/08 05:21:13;;;;;;;5.20;3.07;;;;;;;18.56;46.39;100727.59;5049298;28;20545;-58
2022/03/08 05:23:39;;;;;;;4.33;3.27;;;;;;;18.55;46.39;100723.09;5039545;28;20187;-58
2022/03/08 05:26:04;;;;;;;6.17;3.97;;;;;;;18.49;46.96;100721.72;5029742;28;20299;-58
2022/03/08 05:28:31;;;;;;;5.00;2.77;;;;;;;18.47;46.98;100732.69;5029494;28;20192;-58
2022/03/08 05:30:56;;;;;;;4.70;3.40;;;;;;;18.49;46.63;100736.03;5029186;28;20190;-58
2022/03/08 05:33:22;;;;;;;7.00;3.10;;;;;;;18.49;46.97;100735.19;5028784;28;20423;-58
2022/03/08 05:35:47;;;;;;;5.40;2.90;;;;;;;18.50;46.73;100728.25;5028268;28;20172;-58
2022/03/08 05:38:12;;;;;;;5.70;3.73;;;;;;;18.51;46.57;100736.47;5029006;28;20540;-58
2022/03/08 05:40:39;;;;;;;5.90;3.67;;;;;;;18.52;46.53;100740.16;5029427;28;20628;-58
2022/03/08 05:43:05;;;;;;;5.90;3.10;;;;;;;18.49;46.78;100733.16;5028860;28;20176;-58
2022/03/08 05:45:30;;;;;;;3.90;3.03;;;;;;;18.48;46.97;100736.38;5029236;28;20467;-58
2022/03/08 05:47:56;;;;;;;4.70;2.90;;;;;;;18.46;46.70;100733.88;5029313;28;20605;-58
2022/03/08 05:50:21;;;;;;;5.03;3.30;;;;;;;18.49;46.45;100729.47;5029123;28;20176;-58
2022/03/08 05:52:46;;;;;;;4.40;3.13;;;;;;;18.46;46.69;100727.34;5036602;28;20183;-58
2022/03/08 05:55:12;;;;;;;5.37;3.30;;;;;;;18.48;46.77;100722.09;5044897;28;20183;-58
2022/03/08 05:57:37;;;;;;;5.03;2.97;;;;;;;18.51;46.76;100727.06;5047849;28;20525;-58
2022/03/08 06:00:04;;;;;;;4.43;3.10;;;;;;;18.45;46.79;100732.22;5048315;28;20217;-58
2022/03/08 06:02:30;;;;;;;4.20;3.20;;;;;;;18.45;46.80;100732.22;5048872;28;20639;-58
2022/03/08 06:04:55;;;;;;;3.90;2.80;;;;;;;18.45;46.82;100732.22;5049130;28;20466;-58
2022/03/08 06:07:21;;;;;;;4.30;2.80;;;;;;;18.49;46.84;100724.59;5049194;28;20191;-58
2022/03/08 06:09:47;;;;;;;5.30;3.00;;;;;;;18.49;46.84;100720.88;5048459;28;20323;-57
2022/03/08 06:12:13;;;;;;;3.93;2.53;;;;;;;18.53;46.48;100722.66;5048494;28;20270;-58
2022/03/08 06:14:38;;;;;;;3.97;2.67;;;;;;;18.50;46.65;100719.69;5049373;28;20176;-58
2022/03/08 06:17:06;;;;;;;5.00;3.63;;;;;;;18.46;46.81;100721.63;5048773;28;20180;-58
2022/03/08 06:19:32;;;;;;;4.87;2.87;;;;;;;18.50;46.59;100725.38;5050979;28;20219;-59
2022/03/08 06:21:57;;;;;;;5.63;3.47;;;;;;;18.52;46.65;100726.69;5052391;28;20425;-58
2022/03/08 06:24:23;;;;;;;4.27;2.97;;;;;;;18.53;46.74;100721.81;5052595;28;20659;-58
2022/03/08 06:26:48;;;;;;;3.90;2.87;;;;;;;18.49;47.07;100738.88;5052522;28;20196;-58
2022/03/08 06:29:13;;;;;;;4.50;2.90;;;;;;;18.49;46.64;100724.59;5052013;28;20195;-58
2022/03/08 06:31:39;;;;;;;5.10;3.53;;;;;;;18.51;46.38;100725.03;5052392;28;20191;-58
2022/03/08 06:34:04;;;;;;;4.87;2.83;;;;;;;18.51;46.79;100729.94;5052107;28;20611;-58
2022/03/08 06:36:30;;;;;;;4.80;2.80;;;;;;;18.51;46.83;100730.75;5052538;28;20160;-57
2022/03/08 06:38:55;;;;;;;3.63;2.70;;;;;;;18.51;46.76;100739.31;5051951;28;20639;-58
2022/03/08 06:41:21;;;;;;;4.27;2.73;;;;;;;18.53;46.64;100738.97;5052173;28;20237;-59
2022/03/08 06:43:46;;;;;;;4.33;2.83;;;;;;;18.50;46.76;100739.69;5051880;28;20191;-58
2022/03/08 06:46:12;;;;;;;5.90;2.97;;;;;;;18.49;46.61;100738.88;5052482;28;20658;-58
2022/03/08 06:48:38;;;;;;;6.70;2.87;;;;;;;18.48;46.61;100748.66;5047275;28;20195;-58
2022/03/08 06:51:04;;;;;;;6.40;2.70;;;;;;;18.49;46.84;100746.63;5035228;28;20214;-58
2022/03/08 06:53:29;;;;;;;4.40;3.30;;;;;;;18.51;46.85;100747.91;5045718;28;20426;-58
2022/03/08 06:55:55;;;;;;;3.40;2.47;;;;;;;18.53;46.58;100747.53;5051697;28;20171;-58
2022/03/08 06:58:20;;;;;;;4.00;2.60;;;;;;;18.50;46.94;100749.09;5051600;28;20180;-58
2022/03/08 07:00:46;;;;;;;4.80;3.00;;;;;;;18.53;46.90;100754.09;5051658;28;20199;-59
2022/03/08 07:03:11;;;;;;;4.43;2.97;;;;;;;18.47;46.71;100746.16;5051058;28;20206;-59
2022/03/08 07:05:38;;;;;;;4.37;2.77;;;;;;;18.48;46.82;100753.53;5050031;28;20638;-58
2022/03/08 07:08:04;;;;;;;3.70;2.37;;;;;;;18.50;46.60;100757.69;5047896;28;20258;-58
2022/03/08 07:10:30;;;;;;;3.97;2.80;;;;;;;18.49;46.60;100767.47;5050667;28;20426;-58
2022/03/08 07:12:55;;;;;;;4.83;2.90;;;;;;;18.51;46.83;100769.97;5051021;28;20758;-58
2022/03/08 07:15:21;;;;;;;4.50;2.87;;;;;;;18.46;46.83;100773.91;5046922;28;20185;-58
2022/03/08 07:17:46;;;;;;;4.80;3.50;;;;;;;18.50;46.78;100768.28;5031572;28;20192;-59
2022/03/08 07:20:12;;;;;;;4.60;3.10;;;;;;;18.50;46.58;100774.84;5034304;28;20184;-58
2022/03/08 07:22:38;;;;;;;5.23;3.07;;;;;;;18.50;46.74;100779.72;5038319;28;20191;-58
2022/03/08 07:25:04;;;;;;;3.67;2.60;;;;;;;18.52;46.80;100783.88;5050519;28;20194;-58
2022/03/08 07:27:29;;;;;;;4.50;2.67;;;;;;;18.53;46.37;100785.56;5049096;28;20188;-58
2022/03/08 07:29:55;;;;;;;3.67;2.50;;;;;;;18.51;46.97;100787.94;5050392;28;20406;-57
2022/03/08 07:32:20;;;;;;;4.83;3.13;;;;;;;18.51;46.75;100782.22;5051117;28;20156;-58
2022/03/08 07:34:46;;;;;;;3.43;2.50;;;;;;;18.48;46.62;100779.28;5051395;28;20176;-58
2022/03/08 07:37:11;;;;;;;4.60;2.40;;;;;;;18.45;46.96;100783.69;5051485;28;20653;-58
2022/03/08 07:39:37;;;;;;;4.73;2.70;;;;;;;18.53;46.53;100779.84;5050884;28;20159;-58
2022/03/08 07:42:02;;;;;;;3.60;2.90;;;;;;;18.52;46.80;100778.16;5050667;28;20164;-58
2022/03/08 07:44:28;;;;;;;4.43;2.73;;;;;;;18.50;46.80;100774.84;5051078;28;20244;-58
2022/03/08 07:46:55;;;;;;;3.80;2.70;;;;;;;18.50;46.77;100780.56;5045516;28;20327;-58
2022/03/08 07:49:21;;;;;;;4.67;2.67;;;;;;;18.54;46.55;100786.38;5030914;28;20707;-58
2022/03/08 07:51:47;;;;;;;5.00;2.97;;;;;;;18.51;46.89;100775.69;5032153;28;20423;-58
2022/03/08 07:54:12;;;;;;;4.00;2.73;;;;;;;18.49;46.80;100787.47;5049649;28;20906;-58
2022/03/08 07:56:38;;;;;;;3.60;2.30;;;;;;;18.53;46.66;100779.84;5051084;28;20171;-58
2022/03/08 07:59:06;;;;;;;4.93;3.00;;;;;;;18.48;46.79;100782.13;5050632;28;20176;-60
2022/03/08 08:01:32;;;;;;;4.93;2.87;;;;;;;18.48;46.69;100791.53;5050610;28;20186;-60
2022/03/08 08:03:57;;;;;;;4.47;2.43;;;;;;;18.49;46.89;100789.50;5050615;28;20789;-60
2022/03/08 08:06:23;;;;;;;4.17;2.93;;;;;;;18.49;46.70;100793.19;5050120;28;20195;-60
2022/03/08 08:08:48;;;;;;;4.30;2.63;;;;;;;18.53;46.58;100799.84;5049413;28;20234;-61
2022/03/08 08:11:13;;;;;;;4.70;2.93;;;;;;;18.50;46.45;100796.88;5050395;28;20187;-60
2022/03/08 08:13:39;;;;;;;5.17;2.70;;;;;;;18.45;46.74;100800.00;5050271;28;20553;-60
2022/03/08 08:16:04;;;;;;;3.77;2.40;;;;;;;18.51;46.49;100793.66;5050589;28;20551;-61
2022/03/08 08:18:30;;;;;;;4.77;3.00;;;;;;;18.52;46.51;100800.22;5049363;28;20188;-60
2022/03/08 08:20:55;;;;;;;4.27;2.90;;;;;;;18.50;46.97;100797.72;5050015;28;20167;-61
2022/03/08 08:23:21;;;;;;;4.07;2.73;;;;;;;18.50;47.05;100794.84;5049948;28;20210;-60
2022/03/08 08:25:46;;;;;;;3.20;2.33;;;;;;;18.52;46.86;100800.22;5050091;28;20195;-60
2022/03/08 08:28:12;;;;;;;3.87;2.87;;;;;;;18.54;46.69;100798.66;5050340;28;20262;-60
2022/03/08 08:30:37;;;;;;;3.97;2.97;;;;;;;18.48;46.97;100805.84;5049893;28;20556;-60
2022/03/08 08:33:03;;;;;;;3.83;2.33;;;;;;;18.48;47.06;100802.97;5050033;28;20194;-60
2022/03/08 08:35:28;;;;;;;3.37;2.37;;;;;;;18.48;46.86;100794.41;5032521;28;20182;-60
2022/03/08 08:37:53;;;;;;;3.93;2.50;;;;;;;18.52;46.90;100794.50;5049397;28;20183;-60
2022/03/08 08:40:19;;;;;;;3.63;2.50;;;;;;;18.50;46.98;100785.44;5049730;28;20544;-59
2022/03/08 08:42:44;;;;;;;4.20;2.83;;;;;;;18.54;46.63;100781.47;5048858;28;20292;-60
2022/03/08 08:45:10;;;;;;;4.40;2.50;;;;;;;18.53;46.75;100785.56;5049364;28;20196;-61
2022/03/08 08:47:36;;;;;;;4.40;3.07;;;;;;;18.54;46.79;100786.38;5049854;28;20180;-60
2022/03/08 08:50:01;;;;;;;5.80;2.90;;;;;;;18.47;46.72;100801.28;5049779;28;20479;-60
2022/03/08 08:52:27;;;;;;;4.37;2.60;;;;;;;18.50;46.99;100783.41;5049053;28;20624;-60
2022/03/08 08:54:52;;;;;;;3.47;2.40;;;;;;;18.50;46.77;100788.28;5049947;28;20190;-60
2022/03/08 08:57:18;;;;;;;3.77;2.70;;;;;;;18.51;46.59;100787.94;5049680;28;20176;-60
2022/03/08 08:59:43;;;;;;;5.80;2.77;;;;;;;18.52;46.50;100775.28;5049368;28;20326;-60
2022/03/08 09:02:09;;;;;;;3.17;2.43;;;;;;;18.52;46.67;100781.00;5049766;28;20183;-60
2022/03/08 09:04:34;;;;;;;3.80;2.70;;;;;;;18.48;46.98;100780.09;5049025;28;20613;-60
2022/03/08 09:07:00;;;;;;;3.73;2.80;;;;;;;18.49;47.15;100778.91;5030663;28;20210;-60
2022/03/08 09:09:26;;;;;;;4.43;2.77;;;;;;;18.50;46.75;100779.72;5039615;28;20552;-60
2022/03/08 09:11:51;;;;;;;3.33;2.30;;;;;;;18.51;46.63;100776.50;5049626;28;20425;-60
2022/03/08 09:14:17;;;;;;;2.90;2.60;;;;;;;18.52;46.78;100771.63;5048235;28;20175;-60
2022/03/08 09:16:42;;;;;;;5.23;3.00;;;;;;;18.52;46.83;100766.72;5029755;28;20191;-60
2022/03/08 09:19:08;;;;;;;4.90;2.80;;;;;;;18.53;46.69;100776.97;5029787;28;20188;-60
2022/03/08 09:21:34;;;;;;;3.70;2.13;;;;;;;18.50;47.14;100763.41;5028164;28;20211;-60
2022/03/08 09:23:59;;;;;;;3.83;2.60;;;;;;;18.48;46.87;100762.97;5047130;28;20441;-60
2022/03/08 09:26:25;;;;;;;3.43;2.40;;;;;;;18.53;46.60;100762.69;5046655;28;20203;-60
2022/03/08 09:28:50;;;;;;;3.43;2.30;;;;;;;18.52;46.72;100758.13;5047634;28;20215;-60
2022/03/08 09:31:16;;;;;;;3.43;2.33;;;;;;;18.53;46.83;100753.25;5049775;28;20734;-60
2022/03/08 09:33:42;;;;;;;3.73;2.33;;;;;;;18.55;46.85;100753.69;5049513;28;20180;-60
2022/03/08 09:36:08;;;;;;;3.57;2.77;;;;;;;18.52;46.97;100752.41;5049217;28;20232;-60
2022/03/08 09:38:34;;;;;;;5.03;2.77;;;;;;;18.51;46.97;100752.81;5049252;28;20496;-60
2022/03/08 09:41:00;;;;;;;3.33;2.40;;;;;;;18.50;46.70;100757.69;5047866;28;20179;-60
2022/03/08 09:43:26;;;;;;;3.87;2.60;;;;;;;18.50;47.24;100757.69;5049324;28;20214;-60
2022/03/08 09:45:51;;;;;;;3.87;2.40;;;;;;;18.51;47.11;100753.63;5030310;28;20462;-60
2022/03/08 09:48:18;;;;;;;3.23;2.20;;;;;;;18.53;46.62;100756.13;5047405;28;20168;-60
2022/03/08 09:50:46;;;;;;;3.80;2.20;;;;;;;18.53;46.83;100758.97;5048462;28;20171;-60
2022/03/08 09:53:12;;;;;;;3.90;2.30;;;;;;;18.54;46.60;100764.34;5051250;28;20499;-60
2022/03/08 09:55:37;;;;;;;4.03;2.43;;;;;;;18.51;46.80;100764.25;5053566;28;20395;-60
2022/03/08 09:58:04;;;;;;;3.27;2.33;;;;;;;18.52;47.03;100757.31;5053134;28;20572;-60
2022/03/08 10:00:31;;;;;;;3.53;2.57;;;;;;;18.46;47.13;100762.47;5052672;28;20203;-60
2022/03/08 10:02:57;;;;;;;3.30;2.33;;;;;;;18.52;46.91;100752.41;5051160;28;20921;-60
2022/03/08 10:05:26;;;;;;;5.70;2.80;;;;;;;18.54;46.79;100752.91;5052080;28;20454;-61
2022/03/08 10:08:03;;;;;;;4.00;2.30;;;;;;;18.54;46.85;100752.06;5050711;28;20603;-60
2022/03/08 10:10:31;;;;;;;4.20;2.30;;;;;;;18.51;47.04;100747.91;5032914;28;20964;-60
2022/03/08 10:12:57;;;;;;;3.70;2.50;;;;;;;18.55;46.81;100745.97;5044982;28;20430;-60
2022/03/08 10:15:22;;;;;;;3.40;2.30;;;;;;;18.53;46.80;100739.81;5052280;28;20433;-60
2022/03/08 10:17:48;;;;;;;3.30;2.53;;;;;;;18.54;46.68;100744.31;5052344;28;20240;-60
2022/03/08 10:20:13;;;;;;;2.97;2.13;;;;;;;18.53;46.92;100744.69;5052692;28;20179;-60
2022/03/08 10:22:40;;;;;;;3.60;2.30;;;;;;;18.55;46.62;100736.53;5034607;28;20188;-60
2022/03/08 10:25:11;;;;;;;4.43;2.70;;;;;;;18.54;46.91;100734.91;5034824;28;20199;-60
2022/03/08 10:27:37;;;;;;;3.63;2.30;;;;;;;18.55;46.70;100737.38;5051605;28;20445;-60
2022/03/08 10:30:04;;;;;;;3.50;2.67;;;;;;;18.53;46.97;100742.66;5033978;28;20434;-60
2022/03/08 10:32:36;;;;;;;3.93;2.57;;;;;;;18.53;46.62;100731.22;5052421;28;20203;-60
2022/03/08 10:35:01;;;;;;;3.37;2.43;;;;;;;18.56;47.02;100735.38;5052468;28;20421;-60
2022/03/08 10:37:27;;;;;;;3.90;2.33;;;;;;;18.54;46.89;100735.72;5052571;28;20418;-60
2022/03/08 10:39:54;;;;;;;3.53;2.30;;;;;;;18.55;46.76;100731.66;5017418;28;20191;-60
2022/03/08 10:42:37;;;;;;;3.37;2.27;;;;;;;18.57;47.01;100728.44;5052178;28;20176;-60
2022/03/08 10:45:07;;;;;;;3.27;2.33;;;;;;;18.56;46.63;100733.31;5051924;28;20445;-60
2022/03/08 10:47:43;;;;;;;4.53;2.17;;;;;;;18.58;47.01;100730.94;5052225;28;20513;-60
2022/03/08 10:50:10;;;;;;;3.30;2.43;;;;;;;18.59;46.80;100732.59;5051678;28;20430;-61
2022/03/08 10:52:37;;;;;;;2.60;2.07;;;;;;;18.58;46.65;100736.66;5034160;28;20429;-60
2022/03/08 10:55:13;;;;;;;3.17;2.30;;;;;;;18.57;46.87;100723.53;5052114;28;20418;-60
2022/03/08 10:57:43;;;;;;;4.23;2.50;;;;;;;18.57;46.57;100729.25;5052255;28;20424;-60
2022/03/08 11:00:14;;;;;;;3.20;2.30;;;;;;;18.60;46.69;100728.53;5032755;28;20720;-60
2022/03/08 11:02:57;;;;;;;4.67;2.80;;;;;;;18.59;46.88;100724.00;5051733;28;20416;-60
2022/03/08 11:05:25;;;;;;;3.33;2.40;;;;;;;18.59;46.71;100720.31;5050907;28;20453;-60
2022/03/08 11:07:50;;;;;;;2.97;2.30;;;;;;;18.59;46.71;100721.16;5050840;28;20410;-60
2022/03/08 11:10:16;;;;;;;3.50;2.40;;;;;;;18.59;46.72;100720.31;5047890;28;20473;-60
2022/03/08 11:12:42;;;;;;;4.50;2.50;;;;;;;18.62;47.02;100720.41;5048079;28;20250;-60
2022/03/08 11:15:09;;;;;;;3.30;2.30;;;;;;;18.60;46.77;100719.09;5051741;28;20532;-60
2022/03/08 11:17:35;;;;;;;2.60;2.07;;;;;;;18.58;47.07;100713.78;5051904;28;20646;-60
2022/03/08 11:20:06;;;;;;;2.47;1.90;;;;;;;18.61;46.85;100718.75;5049727;28;20418;-60